This is the latest recevied weather packets stored in our database for station/object KF7PIZ. If no packets are shown the sender has not sent any weather packets the latest 10 day(s).
| Time | Temp. | Humidity | Pressure | Rain* | Wind** | Luminosity | Snow |
|---|---|---|---|---|---|---|---|
| 1777473336 | 10.56° C | 54% | 1022.6 hPa | 0 mm | - | 107 W/m² | - |
| 1777473032 | 10° C | 59% | 1022.7 hPa | 0 mm | - | 86 W/m² | - |
| 1777472728 | 8.33° C | 64% | 1022.6 hPa | 0 mm | - | 78 W/m² | - |
| 1777472425 | 6.11° C | 71% | 1022.6 hPa | 0 mm | - | 71 W/m² | - |
| 1777472123 | 5.56° C | 75% | 1022.5 hPa | 0 mm | - | 64 W/m² | - |
| 1777471822 | 4.44° C | 80% | 1022.3 hPa | 0 mm | - | 48 W/m² | - |
| 1777471519 | 4.44° C | 90% | 1022.3 hPa | 0 mm | - | 37 W/m² | - |
| 1777471216 | 3.89° C | 93% | 1022.5 hPa | 0 mm | - | 33 W/m² | - |
| 1777470913 | 2.22° C | 93% | 1022.6 hPa | 0 mm | - | 24 W/m² | - |
| 1777470610 | 1.67° C | 92% | 1022.3 hPa | 0 mm | - | 26 W/m² | - |
| 1777470305 | 0.56° C | 92% | 1022.5 hPa | 0 mm | - | 18 W/m² | - |
| 1777470002 | 0.56° C | 92% | 1022.1 hPa | 0 mm | - | 12 W/m² | - |
| 1777469698 | 0.56° C | 92% | 1022.2 hPa | 0 mm | - | 9 W/m² | - |
| 1777469395 | 0.56° C | 92% | 1022.3 hPa | 0 mm | - | 8 W/m² | - |
| 1777469094 | 0.56° C | 91% | 1022.2 hPa | 0 mm | - | 6 W/m² | - |
| 1777468789 | 0.56° C | 91% | 1022.3 hPa | 0 mm | - | 4 W/m² | - |
| 1777468486 | 0.56° C | 91% | 1022.3 hPa | 0 mm | - | 3 W/m² | - |
| 1777468183 | 0.56° C | 91% | 1022.3 hPa | 0 mm | - | 1 W/m² | - |
| 1777467879 | 0.56° C | 91% | 1022 hPa | 0 mm | - | 0 W/m² | - |
| 1777467574 | 0° C | 91% | 1021.9 hPa | 0 mm | - | 0 W/m² | - |
| 1777467270 | 0.56° C | 90% | 1021.8 hPa | 0 mm | - | 0 W/m² | - |
| 1777466966 | 0.56° C | 90% | 1022 hPa | 0 mm | - | 0 W/m² | - |
| 1777466664 | 0.56° C | 90% | 1022.1 hPa | 0 mm | - | 0 W/m² | - |
| 1777466361 | 0.56° C | 90% | 1021.9 hPa | 0 mm | - | 0 W/m² | - |
| 1777466057 | 0.56° C | 90% | 1022 hPa | 0 mm | - | 0 W/m² | - |
* Rain latest hour (hover to see other rain measurements)
** Current wind speed in m/s (hover to see current wind gust speed)